createdAt,value
2022-08-20T00:00:09.661Z,98018.69
2022-08-20T00:02:45.273Z,98018.69
2022-08-20T00:05:14.908Z,98019.47
2022-08-20T00:07:43.747Z,98017.34
2022-08-20T00:10:12.736Z,98022.41
2022-08-20T00:12:48.651Z,98025.88
2022-08-20T00:15:21.812Z,98032.31
2022-08-20T00:17:54.702Z,98032.03
2022-08-20T00:20:30.017Z,98035.22
2022-08-20T00:22:59.361Z,98037.09
2022-08-20T00:25:31.252Z,98044.53
2022-08-20T00:28:01.647Z,98039.47
2022-08-20T00:30:31.661Z,98044.00
2022-08-20T00:33:06.343Z,98039.75
2022-08-20T00:35:38.613Z,98040.25
2022-08-20T00:38:07.158Z,98034.44
2022-08-20T00:40:40.192Z,98037.63
2022-08-20T00:43:30.896Z,98032.00
2022-08-20T00:46:03.008Z,98040.78
2022-08-20T00:48:35.082Z,98038.66
2022-08-20T00:51:10.399Z,98041.88
2022-08-20T00:53:40.303Z,98042.13
2022-08-20T00:56:11.203Z,98046.94
2022-08-20T00:58:46.099Z,98046.69
2022-08-20T01:01:16.781Z,98044.56
2022-08-20T01:03:45.368Z,98048.78
2022-08-20T01:06:13.899Z,98049.59
2022-08-20T01:08:43.286Z,98049.59
2022-08-20T01:11:13.528Z,98047.50
2022-08-20T01:13:46.471Z,98052.00
2022-08-20T01:16:26.613Z,98053.06
2022-08-20T01:18:58.090Z,98050.41
2022-08-20T01:21:28.690Z,98053.84
2022-08-20T01:24:04.848Z,98055.22
2022-08-20T01:26:41.138Z,98055.75
2022-08-20T01:29:16.840Z,98058.94
2022-08-20T01:31:45.720Z,98061.06
2022-08-20T01:34:18.750Z,98063.13
2022-08-20T01:36:50.947Z,98066.63
2022-08-20T01:39:22.941Z,98061.53
2022-08-20T01:42:08.139Z,98062.31
2022-08-20T01:44:38.600Z,98065.50
2022-08-20T01:47:17.066Z,98061.50
2022-08-20T01:49:52.174Z,98070.56
2022-08-20T01:52:30.387Z,98071.34
2022-08-20T01:54:59.421Z,98067.31
2022-08-20T01:57:29.517Z,98076.34
2022-08-20T01:59:58.125Z,98071.03
2022-08-20T02:02:27.873Z,98075.25
2022-08-20T02:04:57.304Z,98081.06
2022-08-20T02:07:25.748Z,98067.47
2022-08-20T02:09:54.653Z,98073.38
2022-08-20T02:12:23.212Z,98072.56
2022-08-20T02:14:57.025Z,98060.53
2022-08-20T02:17:28.114Z,98065.06
2022-08-20T02:20:04.004Z,98062.38
2022-08-20T02:22:44.251Z,98067.19
2022-08-20T02:25:23.041Z,98061.25
2022-08-20T02:27:55.045Z,98065.78
2022-08-20T02:30:30.582Z,98064.22
2022-08-20T02:32:59.129Z,98058.59
2022-08-20T02:35:29.152Z,98059.94
2022-08-20T02:37:58.213Z,98067.63
2022-08-20T02:40:31.194Z,98063.88
2022-08-20T02:43:00.910Z,98074.00
2022-08-20T02:45:37.893Z,98069.72
2022-08-20T02:48:07.091Z,98085.19
2022-08-20T02:50:35.660Z,98086.78
2022-08-20T02:53:04.769Z,98088.38
2022-08-20T02:55:33.908Z,98092.13
2022-08-20T02:58:02.455Z,98090.78
2022-08-20T03:00:38.473Z,98088.59
2022-08-20T03:03:08.238Z,98088.88
2022-08-20T03:05:37.100Z,98086.75
2022-08-20T03:08:12.293Z,98085.66
2022-08-20T03:10:43.157Z,98085.38
2022-08-20T03:13:13.825Z,98086.97
2022-08-20T03:15:59.178Z,98084.03
2022-08-20T03:18:31.333Z,98076.50
2022-08-20T03:21:00.395Z,98076.50
2022-08-20T03:23:30.206Z,98078.06
2022-08-20T03:25:59.124Z,98078.63
2022-08-20T03:28:28.778Z,98083.94
2022-08-20T03:30:59.479Z,98091.66
2022-08-20T03:33:29.371Z,98077.53
2022-08-20T03:35:57.916Z,98076.50
2022-08-20T03:38:32.939Z,98078.34
2022-08-20T03:41:04.544Z,98076.44
2022-08-20T03:43:34.336Z,98082.34
2022-08-20T03:46:05.629Z,98091.38
2022-08-20T03:48:59.724Z,98091.63
2022-08-20T03:51:30.535Z,98090.03
2022-08-20T03:53:59.825Z,98093.50
2022-08-20T03:56:29.569Z,98090.03
2022-08-20T03:58:58.361Z,98087.06
2022-08-20T04:01:44.477Z,98087.06
2022-08-20T04:04:15.383Z,98089.72
2022-08-20T04:06:46.095Z,98091.59
2022-08-20T04:09:14.921Z,98092.09
2022-08-20T04:11:44.158Z,98100.31
2022-08-20T04:14:18.652Z,98099.28
2022-08-20T04:16:50.734Z,98096.56
2022-08-20T04:19:21.399Z,98097.06
2022-08-20T04:21:50.623Z,98097.00
2022-08-20T04:24:22.731Z,98103.09
2022-08-20T04:27:00.364Z,98108.94
2022-08-20T04:29:32.196Z,98107.09
2022-08-20T04:32:05.851Z,98103.63
2022-08-20T04:34:37.338Z,98100.16
2022-08-20T04:37:17.253Z,98100.69
2022-08-20T04:40:06.298Z,98099.63
2022-08-20T04:42:36.174Z,98102.28
2022-08-20T04:45:07.961Z,98106.00
2022-08-20T04:47:39.220Z,98118.25
2022-08-20T04:50:11.256Z,98119.84
2022-08-20T04:52:40.639Z,98117.75
2022-08-20T04:55:10.954Z,98114.03
2022-08-20T04:57:39.578Z,98121.44
2022-08-20T05:00:14.460Z,98119.84
2022-08-20T05:02:45.375Z,98121.44
2022-08-20T05:05:14.873Z,98130.00
2022-08-20T05:07:47.034Z,98132.09
2022-08-20T05:10:19.108Z,98135.50
2022-08-20T05:12:56.580Z,98132.06
2022-08-20T05:15:27.006Z,98130.13
2022-08-20T05:18:02.620Z,98137.03
2022-08-20T05:20:34.851Z,98137.09
2022-08-20T05:23:05.014Z,98133.88
2022-08-20T05:25:33.971Z,98133.88
2022-08-20T05:28:09.609Z,98135.25
2022-08-20T05:30:40.863Z,98136.88
2022-08-20T05:33:14.873Z,98136.34
2022-08-20T05:35:44.065Z,98140.03
2022-08-20T05:38:16.137Z,98146.13
2022-08-20T05:40:45.984Z,98148.72
2022-08-20T05:43:15.125Z,98153.69
2022-08-20T05:45:46.112Z,98151.91
2022-08-20T05:48:19.876Z,98140.19
2022-08-20T05:50:51.410Z,98138.59
2022-08-20T05:53:20.630Z,98159.38
2022-08-20T05:55:52.770Z,98158.31
2022-08-20T05:58:26.721Z,98155.34
2022-08-20T06:00:56.325Z,98151.38
2022-08-20T06:03:43.695Z,98154.28
2022-08-20T06:06:18.180Z,98153.78
2022-08-20T06:09:00.804Z,98159.38
2022-08-20T06:11:31.707Z,98154.84
2022-08-20T06:14:03.925Z,98151.13
2022-08-20T06:16:32.767Z,98155.41
2022-08-20T06:19:03.378Z,98154.09
2022-08-20T06:21:32.107Z,98155.50
2022-08-20T06:24:01.484Z,98161.03
2022-08-20T06:26:31.714Z,98157.25
2022-08-20T06:29:00.399Z,98155.66
2022-08-20T06:31:29.570Z,98161.03
2022-08-20T06:33:58.192Z,98158.16
2022-08-20T06:36:28.168Z,98156.53
2022-08-20T06:38:58.343Z,98160.81
2022-08-20T06:41:35.796Z,98159.19
2022-08-20T06:44:06.590Z,98157.06
2022-08-20T06:46:36.278Z,98148.84
2022-08-20T06:49:05.513Z,98156.84
2022-08-20T06:51:37.363Z,98162.84
2022-08-20T06:54:07.647Z,98161.75
2022-08-20T06:56:36.185Z,98155.72
2022-08-20T06:59:04.701Z,98159.72
2022-08-20T07:01:33.592Z,98148.84
2022-08-20T07:04:02.232Z,98153.13
2022-08-20T07:06:31.860Z,98151.28
2022-08-20T07:09:02.059Z,98150.47
2022-08-20T07:11:30.599Z,98149.16
2022-08-20T07:13:59.697Z,98145.44
2022-08-20T07:16:28.968Z,98143.84
2022-08-20T07:18:59.095Z,98140.22
2022-08-20T07:21:28.426Z,98145.53
2022-08-20T07:23:57.923Z,98155.31
2022-08-20T07:26:28.634Z,98159.28
2022-08-20T07:28:57.209Z,98161.72
2022-08-20T07:31:43.875Z,98157.72
2022-08-20T07:34:16.708Z,98155.09
2022-08-20T07:36:48.450Z,98151.97
2022-08-20T07:39:17.156Z,98153.91
2022-08-20T07:42:03.526Z,98149.16
2022-08-20T07:44:32.587Z,98157.97
2022-08-20T07:47:01.426Z,98158.78
2022-08-20T07:49:31.500Z,98157.94
2022-08-20T07:52:00.117Z,98162.47
2022-08-20T07:54:30.421Z,98173.41
2022-08-20T07:57:04.100Z,98163.28
2022-08-20T07:59:33.223Z,98171.00
2022-08-20T08:02:01.712Z,98159.31
2022-08-20T08:04:30.196Z,98167.13
2022-08-20T08:07:00.869Z,98160.72
2022-08-20T08:09:30.121Z,98165.50
2022-08-20T08:12:00.781Z,98161.22
2022-08-20T08:14:35.993Z,98153.81
2022-08-20T08:17:07.836Z,98154.28
2022-08-20T08:19:43.650Z,98155.38
2022-08-20T08:22:17.431Z,98159.59
2022-08-20T08:24:57.478Z,98156.75
2022-08-20T08:27:26.699Z,98155.97
2022-08-20T08:29:56.608Z,98151.97
2022-08-20T08:32:25.164Z,98147.22
2022-08-20T08:34:53.781Z,98153.13
2022-08-20T08:37:22.798Z,98154.47
2022-08-20T08:39:52.040Z,98154.53
2022-08-20T08:42:31.361Z,98146.06
2022-08-20T08:45:04.096Z,98138.63
2022-08-20T08:47:37.905Z,98151.44
2022-08-20T08:50:14.686Z,98155.47
2022-08-20T08:52:44.595Z,98149.34
2022-08-20T08:55:21.175Z,98151.50
2022-08-20T08:57:50.944Z,98141.91
2022-08-20T09:00:23.945Z,98144.63
2022-08-20T09:03:02.467Z,98147.28
2022-08-20T09:05:38.291Z,98152.38
2022-08-20T09:08:17.007Z,98148.09
2022-08-20T09:10:47.184Z,98155.03
2022-08-20T09:13:15.708Z,98147.09
2022-08-20T09:15:46.394Z,98150.28
2022-08-20T09:18:14.969Z,98145.22
2022-08-20T09:20:43.483Z,98138.03
2022-08-20T09:23:11.956Z,98135.66
2022-08-20T09:25:40.587Z,98147.94
2022-08-20T09:28:09.138Z,98139.97
2022-08-20T09:30:38.390Z,98146.38
2022-08-20T09:33:08.388Z,98140.00
2022-08-20T09:35:38.113Z,98150.69
2022-08-20T09:38:07.249Z,98145.88
2022-08-20T09:40:35.925Z,98146.97
2022-08-20T09:43:07.295Z,98138.97
2022-08-20T09:45:36.075Z,98129.09
2022-08-20T09:48:05.429Z,98122.97
2022-08-20T09:50:48.870Z,98121.91
2022-08-20T09:53:19.626Z,98125.66
2022-08-20T09:55:54.494Z,98124.59
2022-08-20T09:58:32.883Z,98127.25
2022-08-20T10:01:07.503Z,98116.88
2022-08-20T10:03:42.881Z,98119.28
2022-08-20T10:06:15.556Z,98123.00
2022-08-20T10:08:45.515Z,98128.34
2022-08-20T10:11:14.121Z,98121.69
2022-08-20T10:13:42.730Z,98133.69
2022-08-20T10:16:11.235Z,98135.81
2022-08-20T10:18:39.757Z,98129.69
2022-08-20T10:21:12.998Z,98139.81
2022-08-20T10:23:42.533Z,98133.16
2022-08-20T10:26:12.189Z,98145.72
2022-08-20T10:28:41.051Z,98139.03
2022-08-20T10:31:11.475Z,98146.25
2022-08-20T10:33:42.346Z,98138.25
2022-08-20T10:36:16.573Z,98147.84
2022-08-20T10:38:46.779Z,98143.59
2022-08-20T10:41:15.575Z,98146.75
2022-08-20T10:43:45.232Z,98141.16
2022-08-20T10:46:14.630Z,98140.66
2022-08-20T10:48:43.318Z,98153.97
2022-08-20T10:51:13.349Z,98143.28
2022-08-20T10:53:41.826Z,98139.03
2022-08-20T10:56:15.023Z,98142.78
2022-08-20T10:58:45.113Z,98150.50
2022-08-20T11:01:28.746Z,98152.91
2022-08-20T11:04:01.508Z,98151.06
2022-08-20T11:06:31.451Z,98156.38
2022-08-20T11:08:59.970Z,98154.78
2022-08-20T11:11:29.184Z,98152.63
2022-08-20T11:13:58.514Z,98150.53
2022-08-20T11:16:27.465Z,98155.06
2022-08-20T11:18:55.933Z,98151.84
2022-08-20T11:21:24.463Z,98158.53
2022-08-20T11:23:54.455Z,98142.78
2022-08-20T11:26:26.761Z,98158.25
2022-08-20T11:28:55.839Z,98163.56
2022-08-20T11:31:24.411Z,98159.31
2022-08-20T11:33:52.880Z,98150.78
2022-08-20T11:36:21.481Z,98165.25
2022-08-20T11:38:50.179Z,98167.31
2022-08-20T11:41:20.513Z,98162.53
2022-08-20T11:44:10.532Z,98161.50
2022-08-20T11:46:37.917Z,98163.88
2022-08-20T11:49:06.669Z,98164.69
2022-08-20T11:51:35.187Z,98168.97
2022-08-20T11:54:17.788Z,98161.50
2022-08-20T11:56:53.674Z,98158.81
2022-08-20T11:59:22.120Z,98158.81
2022-08-20T12:02:02.298Z,98160.94
2022-08-20T12:04:33.386Z,98152.09
2022-08-20T12:07:11.579Z,98155.59
2022-08-20T12:09:50.397Z,98153.19
2022-08-20T12:12:24.082Z,98148.09
2022-08-20T12:14:54.205Z,98159.59
2022-08-20T12:17:27.857Z,98148.63
2022-08-20T12:20:01.366Z,98144.09
2022-08-20T12:22:30.851Z,98149.94
2022-08-20T12:25:00.111Z,98146.97
2022-08-20T12:27:32.578Z,98148.88
2022-08-20T12:30:04.690Z,98153.41
2022-08-20T12:32:33.987Z,98144.84
2022-08-20T12:35:02.765Z,98139.50
2022-08-20T12:37:33.116Z,98143.75
2022-08-20T12:40:04.673Z,98138.41
2022-08-20T12:42:34.644Z,98125.31
2022-08-20T12:45:03.400Z,98134.34
2022-08-20T12:47:35.574Z,98134.03
2022-08-20T12:50:10.530Z,98136.41
2022-08-20T12:52:40.028Z,98120.59
2022-08-20T12:55:11.996Z,98132.38
2022-08-20T12:57:45.978Z,98137.66
2022-08-20T13:00:21.862Z,98142.25
2022-08-20T13:02:52.568Z,98137.97
2022-08-20T13:05:22.339Z,98131.81
2022-08-20T13:07:53.157Z,98132.88
2022-08-20T13:10:26.587Z,98125.88
2022-08-20T13:12:56.711Z,98138.13
2022-08-20T13:15:26.490Z,98128.72
2022-08-20T13:17:56.740Z,98130.81
2022-08-20T13:20:34.107Z,98123.78
2022-08-20T13:23:05.518Z,98122.94
2022-08-20T13:25:35.129Z,98137.31
2022-08-20T13:28:07.059Z,98126.03
2022-08-20T13:30:38.532Z,98122.78
2022-08-20T13:33:07.014Z,98124.31
2022-08-20T13:35:35.641Z,98127.97
2022-08-20T13:38:04.217Z,98127.88
2022-08-20T13:40:32.792Z,98124.16
2022-08-20T13:43:06.515Z,98124.75
2022-08-20T13:45:37.579Z,98116.03
2022-08-20T13:48:14.946Z,98117.22
2022-08-20T13:50:46.811Z,98119.22
2022-08-20T13:53:17.231Z,98117.56
2022-08-20T13:55:47.749Z,98114.75
2022-08-20T13:58:17.474Z,98120.75
2022-08-20T14:00:47.954Z,98126.56
2022-08-20T14:03:19.862Z,98123.47
2022-08-20T14:05:53.776Z,98130.72
2022-08-20T14:08:25.135Z,98122.16
2022-08-20T14:10:54.390Z,98114.59
2022-08-20T14:13:27.424Z,98118.47
2022-08-20T14:15:57.701Z,98122.31
2022-08-20T14:18:26.484Z,98119.41
2022-08-20T14:20:54.966Z,98115.78
2022-08-20T14:23:23.561Z,98115.38
2022-08-20T14:25:52.393Z,98112.34
2022-08-20T14:28:24.421Z,98118.34
2022-08-20T14:30:53.835Z,98121.16
2022-08-20T14:33:24.994Z,98116.97
2022-08-20T14:35:54.606Z,98123.31
2022-08-20T14:38:23.562Z,98118.16
2022-08-20T14:40:52.480Z,98111.91
2022-08-20T14:43:21.049Z,98120.03
2022-08-20T14:45:49.948Z,98123.47
2022-08-20T14:48:18.782Z,98121.91
2022-08-20T14:50:48.734Z,98118.47
2022-08-20T14:53:17.216Z,98123.84
2022-08-20T14:55:45.701Z,98111.97
2022-08-20T14:58:16.958Z,98113.94
2022-08-20T15:00:46.147Z,98112.59
2022-08-20T15:03:16.207Z,98113.03
2022-08-20T15:05:44.735Z,98111.44
2022-08-20T15:08:15.637Z,98114.75
2022-08-20T15:10:44.452Z,98107.09
2022-08-20T15:13:13.455Z,98111.78
2022-08-20T15:15:42.522Z,98113.22
2022-08-20T15:18:11.338Z,98106.91
2022-08-20T15:20:40.137Z,98103.84
2022-08-20T15:23:08.835Z,98101.94
2022-08-20T15:25:38.825Z,98101.44
2022-08-20T15:28:10.799Z,98108.03
2022-08-20T15:30:43.196Z,98102.72
2022-08-20T15:33:13.082Z,98103.72
2022-08-20T15:35:41.605Z,98112.88
2022-08-20T15:38:10.450Z,98106.91
2022-08-20T15:40:40.362Z,98099.75
2022-08-20T15:43:08.912Z,98108.06
2022-08-20T15:45:37.993Z,98110.19
2022-08-20T15:48:15.225Z,98116.38
2022-08-20T15:51:12.015Z,98113.88
2022-08-20T15:53:54.597Z,98114.69
2022-08-20T15:56:48.223Z,98112.28
2022-08-20T15:59:46.645Z,98112.50
2022-08-20T16:02:51.063Z,98109.31
2022-08-20T16:05:34.125Z,98111.44
2022-08-20T16:08:23.753Z,98112.84
2022-08-20T16:11:04.698Z,98112.25
2022-08-20T16:13:41.496Z,98114.13
2022-08-20T16:16:19.348Z,98101.69
2022-08-20T16:18:53.615Z,98101.84
2022-08-20T16:21:31.469Z,98101.56
2022-08-20T16:24:00.338Z,98101.38
2022-08-20T16:27:01.474Z,98108.81
2022-08-20T16:29:48.883Z,98110.44
2022-08-20T16:32:33.932Z,98112.41
2022-08-20T16:35:29.046Z,98111.97
2022-08-20T16:38:08.929Z,98106.81
2022-08-20T16:40:49.806Z,98111.00
2022-08-20T16:43:26.800Z,98115.84
2022-08-20T16:46:03.571Z,98117.44
2022-08-20T16:48:40.413Z,98107.50
2022-08-20T16:51:18.712Z,98113.25
2022-08-20T16:53:59.722Z,98126.38
2022-08-20T16:56:37.694Z,98124.00
2022-08-20T16:59:09.624Z,98121.00
2022-08-20T17:01:39.901Z,98118.84
2022-08-20T17:04:09.442Z,98119.28
2022-08-20T17:06:46.822Z,98124.38
2022-08-20T17:09:24.124Z,98114.34
2022-08-20T17:11:52.743Z,98122.91
2022-08-20T17:14:22.118Z,98116.03
2022-08-20T17:16:55.060Z,98121.28
2022-08-20T17:19:29.173Z,98128.13
2022-08-20T17:22:10.460Z,98127.91
2022-08-20T17:24:40.885Z,98127.66
2022-08-20T17:27:15.013Z,98125.84
2022-08-20T17:29:53.457Z,98124.81
2022-08-20T17:32:27.314Z,98128.09
2022-08-20T17:34:59.609Z,98129.81
2022-08-20T17:37:33.602Z,98127.13
2022-08-20T17:40:16.322Z,98134.44
2022-08-20T17:42:52.724Z,98131.53
2022-08-20T17:45:26.325Z,98133.47
2022-08-20T17:48:01.463Z,98129.31
2022-08-20T17:50:36.404Z,98144.41
2022-08-20T17:53:22.560Z,98140.00
2022-08-20T17:55:58.706Z,98147.56
2022-08-20T17:58:54.674Z,98150.28
2022-08-20T18:01:26.636Z,98155.25
2022-08-20T18:03:56.746Z,98147.81
2022-08-20T18:06:35.766Z,98161.00
2022-08-20T18:09:15.125Z,98157.03
2022-08-20T18:11:56.606Z,98152.75
2022-08-20T18:14:51.140Z,98157.09
2022-08-20T18:17:45.459Z,98155.00
2022-08-20T18:20:43.721Z,98165.22
2022-08-20T18:23:21.139Z,98162.63
2022-08-20T18:25:58.251Z,98161.03
2022-08-20T18:28:40.379Z,98163.25
2022-08-20T18:31:10.483Z,98170.53
2022-08-20T18:33:43.255Z,98164.41
2022-08-20T18:36:30.575Z,98173.00
2022-08-20T18:39:04.836Z,98175.72
2022-08-20T18:41:38.351Z,98170.13
2022-08-20T18:44:11.503Z,98168.75
2022-08-20T18:46:54.129Z,98166.38
2022-08-20T18:49:31.817Z,98177.38
2022-08-20T18:52:12.635Z,98172.63
2022-08-20T18:54:52.415Z,98177.97
2022-08-20T18:57:25.402Z,98186.56
2022-08-20T19:00:11.927Z,98186.28
2022-08-20T19:02:56.927Z,98176.41
2022-08-20T19:05:41.343Z,98187.34
2022-08-20T19:08:13.565Z,98188.16
2022-08-20T19:10:54.422Z,98188.72
2022-08-20T19:13:56.290Z,98192.72
2022-08-20T19:16:37.300Z,98194.59
2022-08-20T19:19:05.994Z,98192.47
2022-08-20T19:21:36.880Z,98190.59
2022-08-20T19:24:09.655Z,98194.31
2022-08-20T19:26:45.520Z,98196.16
2022-08-20T19:29:20.792Z,98191.06
2022-08-20T19:31:50.020Z,98201.16
2022-08-20T19:34:25.694Z,98199.25
2022-08-20T19:36:59.692Z,98209.88
2022-08-20T19:39:38.964Z,98205.88
2022-08-20T19:42:18.912Z,98207.25
2022-08-20T19:44:55.304Z,98206.69
2022-08-20T19:47:32.916Z,98210.66
2022-08-20T19:50:20.632Z,98209.78
2022-08-20T19:52:58.895Z,98212.97
2022-08-20T19:55:34.710Z,98211.53
2022-08-20T19:58:08.812Z,98214.97
2022-08-20T20:00:43.251Z,98221.38
2022-08-20T20:03:12.960Z,98229.91
2022-08-20T20:05:52.803Z,98238.41
2022-08-20T20:08:23.633Z,98240.25
2022-08-20T20:10:57.930Z,98232.44
2022-08-20T20:13:35.705Z,98227.78
2022-08-20T20:16:08.735Z,98230.22
2022-08-20T20:18:43.120Z,98229.13
2022-08-20T20:21:19.223Z,98237.22
2022-08-20T20:23:55.605Z,98234.19
2022-08-20T20:26:31.948Z,98230.94
2022-08-20T20:29:07.526Z,98234.34
2022-08-20T20:31:48.804Z,98233.38
2022-08-20T20:34:26.836Z,98236.19
2022-08-20T20:37:08.952Z,98240.25
2022-08-20T20:39:41.441Z,98241.03
2022-08-20T20:45:40.362Z,98239.09
2022-08-20T20:48:22.729Z,98234.66
2022-08-20T20:50:56.389Z,98240.34
2022-08-20T20:53:51.603Z,98236.56
2022-08-20T20:56:37.404Z,98235.56
2022-08-20T20:59:10.429Z,98244.88
2022-08-20T21:01:50.231Z,98242.19
2022-08-20T21:04:21.470Z,98244.06
2022-08-20T21:06:52.169Z,98240.34
2022-08-20T21:09:22.200Z,98241.94
2022-08-20T21:11:53.572Z,98243.25
2022-08-20T21:14:23.593Z,98244.28
2022-08-20T21:16:52.476Z,98236.31
2022-08-20T21:19:21.685Z,98253.34
2022-08-20T21:21:50.145Z,98243.94
2022-08-20T21:24:20.362Z,98246.56
2022-08-20T21:26:50.832Z,98252.31
2022-08-20T21:29:32.154Z,98244.59
2022-08-20T21:32:01.798Z,98249.16
2022-08-20T21:34:30.870Z,98247.31
2022-08-20T21:36:59.460Z,98248.69
2022-08-20T21:39:30.425Z,98247.91
2022-08-20T21:42:03.780Z,98253.56
2022-08-20T21:44:35.929Z,98257.25
2022-08-20T21:47:05.547Z,98263.69
2022-08-20T21:49:37.092Z,98259.38
2022-08-20T21:52:05.825Z,98264.69
2022-08-20T21:54:34.654Z,98263.69
2022-08-20T21:57:08.379Z,98269.09
2022-08-20T21:59:40.699Z,98259.03
2022-08-20T22:02:10.153Z,98258.56
2022-08-20T22:04:39.037Z,98263.88
2022-08-20T22:07:08.325Z,98267.88
2022-08-20T22:09:38.380Z,98257.09
2022-08-20T22:12:15.322Z,98264.16
2022-08-20T22:14:46.192Z,98262.06
2022-08-20T22:17:16.215Z,98271.06
2022-08-20T22:19:49.142Z,98269.78
2022-08-20T22:22:25.170Z,98267.94
2022-08-20T22:24:55.060Z,98269.06
2022-08-20T22:27:23.810Z,98280.97
2022-08-20T22:29:53.874Z,98277.56
2022-08-20T22:32:29.923Z,98277.69
2022-08-20T22:35:04.446Z,98276.66
2022-08-20T22:37:35.760Z,98280.13
2022-08-20T22:40:05.118Z,98276.09
2022-08-20T22:42:33.634Z,98273.59
2022-08-20T22:45:03.652Z,98271.03
2022-08-20T22:47:32.838Z,98271.44
2022-08-20T22:50:04.209Z,98279.19
2022-08-20T22:52:34.514Z,98269.75
2022-08-20T22:55:05.990Z,98271.38
2022-08-20T22:57:35.569Z,98265.06
2022-08-20T23:00:15.726Z,98264.59
2022-08-20T23:03:00.985Z,98267.16
2022-08-20T23:05:33.036Z,98268.28
2022-08-20T23:08:07.732Z,98268.75
2022-08-20T23:10:39.251Z,98273.56
2022-08-20T23:13:09.180Z,98269.41
2022-08-20T23:15:45.791Z,98269.97
2022-08-20T23:18:20.344Z,98273.91
2022-08-20T23:20:56.846Z,98272.41
2022-08-20T23:23:29.095Z,98267.03
2022-08-20T23:25:58.329Z,98265.28
2022-08-20T23:28:27.913Z,98261.72
2022-08-20T23:30:58.277Z,98263.56
2022-08-20T23:33:29.477Z,98264.59
2022-08-20T23:36:02.773Z,98269.91
2022-08-20T23:38:32.059Z,98270.59
2022-08-20T23:41:00.591Z,98259.75
2022-08-20T23:43:30.704Z,98272.97
2022-08-20T23:46:08.032Z,98271.25
2022-08-20T23:48:40.307Z,98271.00
2022-08-20T23:51:10.188Z,98266.06
2022-08-20T23:53:39.254Z,98265.59
2022-08-20T23:56:08.755Z,98268.44
2022-08-20T23:58:38.191Z,98257.88
